Time;durP1;ratioP1;P1;durP2;ratioP2;P2;SDS_P1;SDS_P2;PMS_P1;PMS_P2;Temp;Humidity;BMP_temperature;BMP_pressure;BME280_temperature;BME280_humidity;BME280_pressure;Samples;Min_cycle;Max_cycle;Signal;HPM_P1;HPM_P2
2023/01/20 00:00:02;;;;;;;3.1;3.0;;;;;;;0.9;100.0;100840;;;;
2023/01/20 00:01:00;;;;;;;3.1;3.0;;;;;;;0.9;100.0;100850;;;;
2023/01/20 00:02:00;;;;;;;3.1;3.0;;;;;;;0.9;100.0;100850;;;;
2023/01/20 00:03:00;;;;;;;3.1;3.0;;;;;;;0.8;100.0;100850;;;;
2023/01/20 00:04:01;;;;;;;3.1;3.0;;;;;;;0.8;100.0;100850;;;;
2023/01/20 00:05:00;;;;;;;3.1;3.0;;;;;;;0.9;100.0;100850;;;;
2023/01/20 00:06:00;;;;;;;3.1;3.0;;;;;;;0.9;100.0;100850;;;;
2023/01/20 00:07:00;;;;;;;3.1;3.0;;;;;;;0.8;100.0;100850;;;;
2023/01/20 00:08:00;;;;;;;3.1;3.0;;;;;;;0.8;100.0;100850;;;;
2023/01/20 00:09:01;;;;;;;3.1;3.0;;;;;;;0.8;100.0;100850;;;;
2023/01/20 00:10:00;;;;;;;3.1;3.0;;;;;;;0.8;100.0;100850;;;;
2023/01/20 00:11:05;;;;;;;3.1;3.0;;;;;;;0.9;100.0;100860;;;;
2023/01/20 00:12:00;;;;;;;3.1;3.0;;;;;;;0.9;100.0;100860;;;;
2023/01/20 00:13:00;;;;;;;3.1;3.0;;;;;;;0.8;100.0;100860;;;;
2023/01/20 00:14:01;;;;;;;3.1;3.0;;;;;;;0.8;100.0;100860;;;;
2023/01/20 00:15:00;;;;;;;3.2;3.1;;;;;;;0.8;100.0;100860;;;;
2023/01/20 00:16:01;;;;;;;3.2;3.1;;;;;;;0.8;100.0;100860;;;;
2023/01/20 00:17:00;;;;;;;3.2;3.1;;;;;;;0.8;100.0;100870;;;;
2023/01/20 00:18:00;;;;;;;3.2;3.1;;;;;;;0.8;100.0;100870;;;;
2023/01/20 00:19:00;;;;;;;3.2;3.1;;;;;;;0.8;100.0;100870;;;;
2023/01/20 00:20:00;;;;;;;3.2;3.1;;;;;;;0.8;100.0;100870;;;;
2023/01/20 00:21:01;;;;;;;3.2;3.1;;;;;;;0.8;100.0;100860;;;;
2023/01/20 00:22:00;;;;;;;3.2;3.1;;;;;;;0.8;100.0;100860;;;;
2023/01/20 00:23:00;;;;;;;3.2;3.1;;;;;;;0.8;100.0;100870;;;;
2023/01/20 00:24:00;;;;;;;3.2;3.1;;;;;;;0.8;100.0;100870;;;;
2023/01/20 00:25:00;;;;;;;3.2;3.1;;;;;;;0.9;100.0;100870;;;;
2023/01/20 00:26:09;;;;;;;3.2;3.1;;;;;;;0.9;100.0;100870;;;;
2023/01/20 00:27:00;;;;;;;3.2;3.1;;;;;;;0.9;100.0;100870;;;;
2023/01/20 00:28:00;;;;;;;3.2;3.1;;;;;;;0.9;100.0;100870;;;;
2023/01/20 00:29:00;;;;;;;3.2;3.1;;;;;;;0.7;100.0;100880;;;;
2023/01/20 00:30:00;;;;;;;3.2;3.1;;;;;;;0.7;100.0;100880;;;;
2023/01/20 00:31:10;;;;;;;3.2;3.1;;;;;;;0.8;100.0;100880;;;;
2023/01/20 00:32:01;;;;;;;3.2;3.1;;;;;;;0.8;100.0;100880;;;;
2023/01/20 00:33:00;;;;;;;3.2;3.1;;;;;;;0.8;100.0;100880;;;;
2023/01/20 00:34:01;;;;;;;3.2;3.1;;;;;;;0.8;100.0;100880;;;;
2023/01/20 00:35:00;;;;;;;3.4;3.3;;;;;;;0.8;100.0;100880;;;;
2023/01/20 00:36:00;;;;;;;3.4;3.3;;;;;;;0.8;100.0;100880;;;;
2023/01/20 00:37:00;;;;;;;3.4;3.3;;;;;;;0.7;100.0;100880;;;;
2023/01/20 00:38:00;;;;;;;3.4;3.3;;;;;;;0.7;100.0;100880;;;;
2023/01/20 00:39:01;;;;;;;3.4;3.3;;;;;;;0.8;100.0;100880;;;;
2023/01/20 00:40:00;;;;;;;3.4;3.3;;;;;;;0.8;100.0;100880;;;;
2023/01/20 00:41:00;;;;;;;3.4;3.3;;;;;;;0.7;100.0;100890;;;;
2023/01/20 00:42:00;;;;;;;3.4;3.3;;;;;;;0.7;100.0;100890;;;;
2023/01/20 00:43:00;;;;;;;3.4;3.3;;;;;;;0.7;100.0;100890;;;;
2023/01/20 00:44:00;;;;;;;3.4;3.3;;;;;;;0.7;100.0;100890;;;;
2023/01/20 00:45:00;;;;;;;3.4;3.3;;;;;;;0.7;100.0;100890;;;;
2023/01/20 00:46:00;;;;;;;3.4;3.3;;;;;;;0.7;100.0;100890;;;;
2023/01/20 00:47:00;;;;;;;3.4;3.3;;;;;;;0.8;100.0;100900;;;;
2023/01/20 00:48:00;;;;;;;3.4;3.3;;;;;;;0.8;100.0;100900;;;;
2023/01/20 00:49:00;;;;;;;3.4;3.3;;;;;;;0.8;100.0;100900;;;;
2023/01/20 00:50:00;;;;;;;3.4;3.3;;;;;;;0.8;100.0;100900;;;;
2023/01/20 00:51:00;;;;;;;3.4;3.3;;;;;;;0.8;100.0;100900;;;;
2023/01/20 00:52:00;;;;;;;3.4;3.3;;;;;;;0.8;100.0;100900;;;;
2023/01/20 00:53:00;;;;;;;3.4;3.3;;;;;;;0.8;100.0;100900;;;;
2023/01/20 00:54:00;;;;;;;3.4;3.3;;;;;;;0.8;100.0;100900;;;;
2023/01/20 00:55:00;;;;;;;3.2;3.1;;;;;;;0.8;100.0;100890;;;;
2023/01/20 00:56:00;;;;;;;3.2;3.1;;;;;;;0.8;100.0;100890;;;;
2023/01/20 00:57:00;;;;;;;3.2;3.1;;;;;;;0.8;100.0;100890;;;;
2023/01/20 00:58:00;;;;;;;3.2;3.1;;;;;;;0.8;100.0;100890;;;;
2023/01/20 00:59:00;;;;;;;3.2;3.1;;;;;;;0.8;100.0;100890;;;;
2023/01/20 01:00:00;;;;;;;3.2;3.1;;;;;;;0.8;100.0;100890;;;;
2023/01/20 01:01:00;;;;;;;3.2;3.1;;;;;;;0.8;100.0;100890;;;;
2023/01/20 01:02:00;;;;;;;3.2;3.1;;;;;;;0.8;100.0;100890;;;;
2023/01/20 01:03:00;;;;;;;3.2;3.1;;;;;;;0.8;100.0;100890;;;;
2023/01/20 01:04:00;;;;;;;3.2;3.1;;;;;;;0.8;100.0;100890;;;;
2023/01/20 01:05:00;;;;;;;3.2;3.1;;;;;;;0.7;100.0;100900;;;;
2023/01/20 01:06:10;;;;;;;3.2;3.1;;;;;;;0.7;100.0;100900;;;;
2023/01/20 01:07:00;;;;;;;3.2;3.1;;;;;;;0.8;100.0;100900;;;;
2023/01/20 01:08:00;;;;;;;3.2;3.1;;;;;;;0.8;100.0;100900;;;;
2023/01/20 01:09:00;;;;;;;3.2;3.1;;;;;;;0.8;100.0;100900;;;;
2023/01/20 01:10:00;;;;;;;3.2;3.1;;;;;;;0.8;100.0;100900;;;;
2023/01/20 01:11:00;;;;;;;3.2;3.1;;;;;;;0.8;100.0;100900;;;;
2023/01/20 01:12:00;;;;;;;3.2;3.1;;;;;;;0.8;100.0;100900;;;;
2023/01/20 01:13:03;;;;;;;3.2;3.1;;;;;;;0.7;100.0;100900;;;;
2023/01/20 01:14:00;;;;;;;3.2;3.1;;;;;;;0.7;100.0;100900;;;;
2023/01/20 01:15:00;;;;;;;2.9;2.8;;;;;;;0.7;100.0;100900;;;;
2023/01/20 01:16:00;;;;;;;2.9;2.8;;;;;;;0.7;100.0;100900;;;;
2023/01/20 01:17:00;;;;;;;2.9;2.8;;;;;;;0.7;100.0;100900;;;;
2023/01/20 01:18:01;;;;;;;2.9;2.8;;;;;;;0.7;100.0;100900;;;;
2023/01/20 01:19:01;;;;;;;2.9;2.8;;;;;;;0.7;100.0;100900;;;;
2023/01/20 01:20:00;;;;;;;2.9;2.8;;;;;;;0.7;100.0;100900;;;;
2023/01/20 01:21:05;;;;;;;2.9;2.8;;;;;;;0.7;100.0;100900;;;;
2023/01/20 01:22:00;;;;;;;2.9;2.8;;;;;;;0.7;100.0;100900;;;;
2023/01/20 01:23:00;;;;;;;2.9;2.8;;;;;;;0.7;100.0;100900;;;;
2023/01/20 01:24:00;;;;;;;2.9;2.8;;;;;;;0.7;100.0;100900;;;;
2023/01/20 01:25:00;;;;;;;2.9;2.8;;;;;;;0.6;100.0;100900;;;;
2023/01/20 01:26:00;;;;;;;2.9;2.8;;;;;;;0.6;100.0;100900;;;;
2023/01/20 01:27:00;;;;;;;2.9;2.8;;;;;;;0.7;100.0;100910;;;;
2023/01/20 01:28:00;;;;;;;2.9;2.8;;;;;;;0.7;100.0;100910;;;;
2023/01/20 01:29:00;;;;;;;2.9;2.8;;;;;;;0.7;100.0;100910;;;;
2023/01/20 01:30:00;;;;;;;2.9;2.8;;;;;;;0.7;100.0;100910;;;;
2023/01/20 01:31:01;;;;;;;2.9;2.8;;;;;;;0.6;100.0;100910;;;;
2023/01/20 01:32:00;;;;;;;2.9;2.8;;;;;;;0.6;100.0;100910;;;;
2023/01/20 01:33:00;;;;;;;2.9;2.8;;;;;;;0.7;100.0;100910;;;;
2023/01/20 01:34:00;;;;;;;2.9;2.8;;;;;;;0.7;100.0;100910;;;;
2023/01/20 01:35:00;;;;;;;3.0;2.9;;;;;;;0.6;100.0;100910;;;;
2023/01/20 01:36:01;;;;;;;3.0;2.9;;;;;;;0.6;100.0;100910;;;;
2023/01/20 01:37:00;;;;;;;3.0;2.9;;;;;;;0.7;100.0;100920;;;;
2023/01/20 01:38:00;;;;;;;3.0;2.9;;;;;;;0.7;100.0;100920;;;;
2023/01/20 01:39:00;;;;;;;3.0;2.9;;;;;;;0.6;100.0;100910;;;;
2023/01/20 01:40:00;;;;;;;3.0;2.9;;;;;;;0.6;100.0;100910;;;;
2023/01/20 01:41:00;;;;;;;3.0;2.9;;;;;;;0.7;100.0;100920;;;;
2023/01/20 01:42:00;;;;;;;3.0;2.9;;;;;;;0.7;100.0;100920;;;;
2023/01/20 01:43:00;;;;;;;3.0;2.9;;;;;;;0.7;100.0;100910;;;;
2023/01/20 01:44:02;;;;;;;3.0;2.9;;;;;;;0.7;100.0;100910;;;;
2023/01/20 01:45:11;;;;;;;3.0;2.9;;;;;;;0.7;100.0;100920;;;;
2023/01/20 01:46:01;;;;;;;3.0;2.9;;;;;;;0.7;100.0;100920;;;;
2023/01/20 01:47:01;;;;;;;3.0;2.9;;;;;;;0.7;100.0;100920;;;;
2023/01/20 01:48:04;;;;;;;3.0;2.9;;;;;;;0.7;100.0;100920;;;;
2023/01/20 01:49:03;;;;;;;3.0;2.9;;;;;;;0.6;100.0;100920;;;;
2023/01/20 01:50:00;;;;;;;3.0;2.9;;;;;;;0.6;100.0;100920;;;;
2023/01/20 01:51:03;;;;;;;3.0;2.9;;;;;;;0.7;100.0;100930;;;;
2023/01/20 01:52:02;;;;;;;3.0;2.9;;;;;;;0.7;100.0;100930;;;;
2023/01/20 01:53:00;;;;;;;3.0;2.9;;;;;;;0.7;100.0;100940;;;;
2023/01/20 01:54:04;;;;;;;3.0;2.9;;;;;;;0.7;100.0;100940;;;;
2023/01/20 01:55:01;;;;;;;3.2;3.1;;;;;;;0.7;100.0;100940;;;;
2023/01/20 01:56:01;;;;;;;3.2;3.1;;;;;;;0.7;100.0;100940;;;;
2023/01/20 01:57:00;;;;;;;3.2;3.1;;;;;;;0.6;100.0;100930;;;;
2023/01/20 01:58:01;;;;;;;3.2;3.1;;;;;;;0.6;100.0;100930;;;;
2023/01/20 01:59:01;;;;;;;3.2;3.1;;;;;;;0.6;100.0;100940;;;;
2023/01/20 02:00:01;;;;;;;3.2;3.1;;;;;;;0.6;100.0;100940;;;;
2023/01/20 02:01:00;;;;;;;3.2;3.1;;;;;;;0.7;100.0;100940;;;;
2023/01/20 02:02:01;;;;;;;3.2;3.1;;;;;;;0.7;100.0;100940;;;;
2023/01/20 02:03:00;;;;;;;3.2;3.1;;;;;;;0.8;100.0;100940;;;;
2023/01/20 02:04:03;;;;;;;3.2;3.1;;;;;;;0.8;100.0;100940;;;;
2023/01/20 02:05:01;;;;;;;3.2;3.1;;;;;;;0.6;100.0;100930;;;;
2023/01/20 02:06:01;;;;;;;3.2;3.1;;;;;;;0.6;100.0;100930;;;;
2023/01/20 02:07:04;;;;;;;3.2;3.1;;;;;;;0.7;100.0;100930;;;;
2023/01/20 02:08:01;;;;;;;3.2;3.1;;;;;;;0.7;100.0;100930;;;;
2023/01/20 02:09:01;;;;;;;3.2;3.1;;;;;;;0.7;100.0;100930;;;;
2023/01/20 02:10:00;;;;;;;3.2;3.1;;;;;;;0.7;100.0;100930;;;;
2023/01/20 02:11:00;;;;;;;3.2;3.1;;;;;;;0.6;100.0;100920;;;;
2023/01/20 02:12:02;;;;;;;3.2;3.1;;;;;;;0.6;100.0;100920;;;;
2023/01/20 02:13:00;;;;;;;3.2;3.1;;;;;;;0.7;100.0;100920;;;;
2023/01/20 02:14:00;;;;;;;3.2;3.1;;;;;;;0.7;100.0;100920;;;;
2023/01/20 02:15:01;;;;;;;3.4;3.3;;;;;;;0.7;100.0;100920;;;;
2023/01/20 02:16:07;;;;;;;3.4;3.3;;;;;;;0.7;100.0;100920;;;;
2023/01/20 02:17:10;;;;;;;3.4;3.3;;;;;;;0.7;100.0;100920;;;;
2023/01/20 02:18:10;;;;;;;3.4;3.3;;;;;;;0.7;100.0;100920;;;;
2023/01/20 02:19:01;;;;;;;3.4;3.3;;;;;;;0.6;100.0;100920;;;;
2023/01/20 02:20:00;;;;;;;3.4;3.3;;;;;;;0.6;100.0;100920;;;;
2023/01/20 02:21:09;;;;;;;3.4;3.3;;;;;;;0.7;100.0;100920;;;;
2023/01/20 02:22:10;;;;;;;3.4;3.3;;;;;;;0.7;100.0;100920;;;;
2023/01/20 02:23:06;;;;;;;3.4;3.3;;;;;;;0.6;100.0;100930;;;;
2023/01/20 02:24:01;;;;;;;3.4;3.3;;;;;;;0.6;100.0;100930;;;;
2023/01/20 02:25:10;;;;;;;3.4;3.3;;;;;;;0.7;100.0;100930;;;;
2023/01/20 02:26:10;;;;;;;3.4;3.3;;;;;;;0.7;100.0;100930;;;;
2023/01/20 02:27:01;;;;;;;3.4;3.3;;;;;;;0.7;100.0;100930;;;;
2023/01/20 02:28:10;;;;;;;3.4;3.3;;;;;;;0.7;100.0;100930;;;;
2023/01/20 02:29:03;;;;;;;3.4;3.3;;;;;;;0.7;100.0;100930;;;;
2023/01/20 02:30:10;;;;;;;3.4;3.3;;;;;;;0.7;100.0;100930;;;;
2023/01/20 02:31:00;;;;;;;3.4;3.3;;;;;;;0.7;100.0;100920;;;;
2023/01/20 02:32:10;;;;;;;3.4;3.3;;;;;;;0.7;100.0;100920;;;;
2023/01/20 02:33:09;;;;;;;3.4;3.3;;;;;;;0.8;100.0;100930;;;;
2023/01/20 02:34:09;;;;;;;3.4;3.3;;;;;;;0.8;100.0;100930;;;;
2023/01/20 02:35:10;;;;;;;4.0;3.9;;;;;;;0.7;100.0;100930;;;;
2023/01/20 02:36:04;;;;;;;4.0;3.9;;;;;;;0.7;100.0;100930;;;;
2023/01/20 02:37:06;;;;;;;4.0;3.9;;;;;;;0.8;100.0;100930;;;;
2023/01/20 02:38:09;;;;;;;4.0;3.9;;;;;;;0.8;100.0;100930;;;;
2023/01/20 02:39:00;;;;;;;4.0;3.9;;;;;;;0.7;100.0;100930;;;;
2023/01/20 02:40:10;;;;;;;4.0;3.9;;;;;;;0.7;100.0;100930;;;;
2023/01/20 02:41:00;;;;;;;4.0;3.9;;;;;;;0.7;100.0;100940;;;;
2023/01/20 02:42:07;;;;;;;4.0;3.9;;;;;;;0.7;100.0;100940;;;;
2023/01/20 02:43:07;;;;;;;4.0;3.9;;;;;;;0.6;100.0;100940;;;;
2023/01/20 02:44:06;;;;;;;4.0;3.9;;;;;;;0.6;100.0;100940;;;;
2023/01/20 02:45:06;;;;;;;4.0;3.9;;;;;;;0.6;100.0;100940;;;;
2023/01/20 02:46:04;;;;;;;4.0;3.9;;;;;;;0.6;100.0;100940;;;;
2023/01/20 02:47:00;;;;;;;4.0;3.9;;;;;;;0.6;100.0;100950;;;;
2023/01/20 02:48:05;;;;;;;4.0;3.9;;;;;;;0.6;100.0;100950;;;;
2023/01/20 02:49:10;;;;;;;4.0;3.9;;;;;;;0.7;100.0;100950;;;;
2023/01/20 02:50:07;;;;;;;4.0;3.9;;;;;;;0.7;100.0;100950;;;;
2023/01/20 02:51:10;;;;;;;4.0;3.9;;;;;;;0.6;100.0;100950;;;;
2023/01/20 02:52:00;;;;;;;4.0;3.9;;;;;;;0.6;100.0;100950;;;;
2023/01/20 02:53:02;;;;;;;4.0;3.9;;;;;;;0.7;100.0;100950;;;;
2023/01/20 02:54:03;;;;;;;4.0;3.9;;;;;;;0.7;100.0;100950;;;;
2023/01/20 02:55:04;;;;;;;2.9;2.8;;;;;;;0.7;100.0;100960;;;;
2023/01/20 02:56:00;;;;;;;2.9;2.8;;;;;;;0.7;100.0;100960;;;;
2023/01/20 02:57:02;;;;;;;2.9;2.8;;;;;;;0.8;100.0;100950;;;;
2023/01/20 02:58:02;;;;;;;2.9;2.8;;;;;;;0.8;100.0;100950;;;;
2023/01/20 02:59:04;;;;;;;2.9;2.8;;;;;;;0.7;100.0;100960;;;;
2023/01/20 03:00:04;;;;;;;2.9;2.8;;;;;;;0.7;100.0;100960;;;;
2023/01/20 03:01:03;;;;;;;2.9;2.8;;;;;;;0.7;100.0;100960;;;;
2023/01/20 03:02:03;;;;;;;2.9;2.8;;;;;;;0.7;100.0;100960;;;;
2023/01/20 03:03:01;;;;;;;2.9;2.8;;;;;;;0.7;100.0;100960;;;;
2023/01/20 03:04:02;;;;;;;2.9;2.8;;;;;;;0.7;100.0;100960;;;;
2023/01/20 03:05:04;;;;;;;2.9;2.8;;;;;;;0.7;100.0;100960;;;;
2023/01/20 03:06:02;;;;;;;2.9;2.8;;;;;;;0.7;100.0;100960;;;;
2023/01/20 03:07:02;;;;;;;2.9;2.8;;;;;;;0.8;100.0;100960;;;;
2023/01/20 03:08:02;;;;;;;2.9;2.8;;;;;;;0.8;100.0;100960;;;;
2023/01/20 03:09:03;;;;;;;2.9;2.8;;;;;;;0.7;100.0;100960;;;;
2023/01/20 03:10:02;;;;;;;2.9;2.8;;;;;;;0.7;100.0;100960;;;;
2023/01/20 03:11:03;;;;;;;2.9;2.8;;;;;;;0.8;100.0;100960;;;;
2023/01/20 03:12:03;;;;;;;2.9;2.8;;;;;;;0.8;100.0;100960;;;;
2023/01/20 03:13:11;;;;;;;2.9;2.8;;;;;;;0.6;100.0;100970;;;;
2023/01/20 03:14:04;;;;;;;3.4;3.3;;;;;;;0.6;100.0;100970;;;;
2023/01/20 03:15:01;;;;;;;3.4;3.3;;;;;;;0.7;100.0;100960;;;;
2023/01/20 03:16:03;;;;;;;3.4;3.3;;;;;;;0.7;100.0;100960;;;;
2023/01/20 03:17:01;;;;;;;3.4;3.3;;;;;;;0.8;100.0;100960;;;;
2023/01/20 03:18:00;;;;;;;3.4;3.3;;;;;;;0.8;100.0;100960;;;;
2023/01/20 03:19:00;;;;;;;3.4;3.3;;;;;;;0.7;100.0;100960;;;;
2023/01/20 03:20:00;;;;;;;3.4;3.3;;;;;;;0.7;100.0;100960;;;;
2023/01/20 03:21:02;;;;;;;3.4;3.3;;;;;;;0.7;100.0;100960;;;;
2023/01/20 03:22:00;;;;;;;3.4;3.3;;;;;;;0.7;100.0;100960;;;;
2023/01/20 03:23:00;;;;;;;3.4;3.3;;;;;;;0.7;100.0;100960;;;;
2023/01/20 03:24:01;;;;;;;3.4;3.3;;;;;;;0.7;100.0;100960;;;;
2023/01/20 03:25:01;;;;;;;3.4;3.3;;;;;;;0.7;100.0;100960;;;;
2023/01/20 03:26:03;;;;;;;3.4;3.3;;;;;;;0.7;100.0;100960;;;;
2023/01/20 03:27:00;;;;;;;3.4;3.3;;;;;;;0.7;100.0;100960;;;;
2023/01/20 03:28:00;;;;;;;3.4;3.3;;;;;;;0.7;100.0;100960;;;;
2023/01/20 03:29:04;;;;;;;3.4;3.3;;;;;;;0.6;100.0;100960;;;;
2023/01/20 03:30:00;;;;;;;3.4;3.3;;;;;;;0.6;100.0;100960;;;;
2023/01/20 03:31:05;;;;;;;3.4;3.3;;;;;;;0.7;100.0;100970;;;;
2023/01/20 03:32:01;;;;;;;3.4;3.3;;;;;;;0.7;100.0;100970;;;;
2023/01/20 03:33:01;;;;;;;3.4;3.3;;;;;;;0.7;100.0;100970;;;;
2023/01/20 03:34:02;;;;;;;2.8;2.7;;;;;;;0.7;100.0;100970;;;;
2023/01/20 03:35:00;;;;;;;2.8;2.7;;;;;;;0.7;100.0;100970;;;;
2023/01/20 03:36:00;;;;;;;2.8;2.7;;;;;;;0.7;100.0;100970;;;;
2023/01/20 03:37:01;;;;;;;2.8;2.7;;;;;;;0.8;100.0;100960;;;;
2023/01/20 03:38:00;;;;;;;2.8;2.7;;;;;;;0.8;100.0;100960;;;;
2023/01/20 03:39:00;;;;;;;2.8;2.7;;;;;;;0.6;100.0;100960;;;;
2023/01/20 03:40:01;;;;;;;2.8;2.7;;;;;;;0.6;100.0;100960;;;;
2023/01/20 03:41:06;;;;;;;2.8;2.7;;;;;;;0.7;100.0;100980;;;;
2023/01/20 03:42:07;;;;;;;2.8;2.7;;;;;;;0.7;100.0;100980;;;;
2023/01/20 03:43:05;;;;;;;2.8;2.7;;;;;;;0.6;100.0;100980;;;;
2023/01/20 03:44:10;;;;;;;2.8;2.7;;;;;;;0.6;100.0;100980;;;;
2023/01/20 03:45:06;;;;;;;2.8;2.7;;;;;;;0.7;100.0;100970;;;;
2023/01/20 03:46:04;;;;;;;2.8;2.7;;;;;;;0.7;100.0;100970;;;;
2023/01/20 03:47:07;;;;;;;2.8;2.7;;;;;;;0.6;100.0;100970;;;;
2023/01/20 03:48:10;;;;;;;2.8;2.7;;;;;;;0.6;100.0;100970;;;;
2023/01/20 03:49:06;;;;;;;2.8;2.7;;;;;;;0.6;100.0;100980;;;;
2023/01/20 03:50:10;;;;;;;2.8;2.7;;;;;;;0.6;100.0;100980;;;;
2023/01/20 03:51:10;;;;;;;2.8;2.7;;;;;;;0.6;100.0;100970;;;;
2023/01/20 03:52:03;;;;;;;2.8;2.7;;;;;;;0.6;100.0;100970;;;;
2023/01/20 03:53:10;;;;;;;2.8;2.7;;;;;;;0.6;100.0;100980;;;;
2023/01/20 03:54:02;;;;;;;3.2;3.1;;;;;;;0.6;100.0;100980;;;;
2023/01/20 03:55:10;;;;;;;3.2;3.1;;;;;;;0.7;100.0;100980;;;;
2023/01/20 03:56:06;;;;;;;3.2;3.1;;;;;;;0.7;100.0;100980;;;;
2023/01/20 03:57:05;;;;;;;3.2;3.1;;;;;;;0.6;100.0;100980;;;;
2023/01/20 03:58:03;;;;;;;3.2;3.1;;;;;;;0.6;100.0;100980;;;;
2023/01/20 03:59:01;;;;;;;3.2;3.1;;;;;;;0.6;100.0;100980;;;;
2023/01/20 04:00:01;;;;;;;3.2;3.1;;;;;;;0.6;100.0;100980;;;;
2023/01/20 04:01:13;;;;;;;3.2;3.1;;;;;;;0.5;100.0;100980;;;;
2023/01/20 04:02:03;;;;;;;3.2;3.1;;;;;;;0.5;100.0;100980;;;;
2023/01/20 04:03:04;;;;;;;3.2;3.1;;;;;;;0.5;100.0;100980;;;;
2023/01/20 04:04:02;;;;;;;3.2;3.1;;;;;;;0.5;100.0;100980;;;;
2023/01/20 04:05:01;;;;;;;3.2;3.1;;;;;;;0.6;100.0;100980;;;;
2023/01/20 04:06:03;;;;;;;3.2;3.1;;;;;;;0.6;100.0;100980;;;;
2023/01/20 04:07:02;;;;;;;3.2;3.1;;;;;;;0.6;100.0;100980;;;;
2023/01/20 04:08:02;;;;;;;3.2;3.1;;;;;;;0.6;100.0;100980;;;;
2023/01/20 04:09:03;;;;;;;3.2;3.1;;;;;;;0.6;100.0;100990;;;;
2023/01/20 04:10:06;;;;;;;3.2;3.1;;;;;;;0.6;100.0;100990;;;;
2023/01/20 04:11:03;;;;;;;3.2;3.1;;;;;;;0.6;100.0;100990;;;;
2023/01/20 04:12:00;;;;;;;3.2;3.1;;;;;;;0.6;100.0;100990;;;;
2023/01/20 04:13:00;;;;;;;3.2;3.1;;;;;;;0.5;100.0;100990;;;;
2023/01/20 04:14:00;;;;;;;2.9;2.8;;;;;;;0.5;100.0;100990;;;;
2023/01/20 04:15:00;;;;;;;2.9;2.8;;;;;;;0.5;100.0;100990;;;;
2023/01/20 04:16:02;;;;;;;2.9;2.8;;;;;;;0.5;100.0;100990;;;;
2023/01/20 04:17:02;;;;;;;2.9;2.8;;;;;;;0.5;100.0;100990;;;;
2023/01/20 04:18:10;;;;;;;2.9;2.8;;;;;;;0.5;100.0;100990;;;;
2023/01/20 04:19:00;;;;;;;2.9;2.8;;;;;;;0.5;100.0;100990;;;;
2023/01/20 04:20:03;;;;;;;2.9;2.8;;;;;;;0.5;100.0;100990;;;;
2023/01/20 04:21:01;;;;;;;2.9;2.8;;;;;;;0.6;100.0;100990;;;;
2023/01/20 04:22:03;;;;;;;2.9;2.8;;;;;;;0.6;100.0;100990;;;;
2023/01/20 04:23:01;;;;;;;2.9;2.8;;;;;;;0.5;100.0;100990;;;;
2023/01/20 04:24:10;;;;;;;2.9;2.8;;;;;;;0.5;100.0;100990;;;;
2023/01/20 04:25:06;;;;;;;2.9;2.8;;;;;;;0.5;100.0;100990;;;;
2023/01/20 04:26:00;;;;;;;2.9;2.8;;;;;;;0.5;100.0;100990;;;;
2023/01/20 04:27:00;;;;;;;2.9;2.8;;;;;;;0.5;100.0;100980;;;;
2023/01/20 04:28:00;;;;;;;2.9;2.8;;;;;;;0.5;100.0;100980;;;;
2023/01/20 04:29:07;;;;;;;2.9;2.8;;;;;;;0.5;100.0;100980;;;;
2023/01/20 04:30:00;;;;;;;2.9;2.8;;;;;;;0.5;100.0;100980;;;;
2023/01/20 04:31:00;;;;;;;2.9;2.8;;;;;;;0.5;100.0;100980;;;;
2023/01/20 04:32:01;;;;;;;2.9;2.8;;;;;;;0.5;100.0;100980;;;;
2023/01/20 04:33:00;;;;;;;2.9;2.8;;;;;;;0.6;100.0;100990;;;;
2023/01/20 04:34:00;;;;;;;3.1;3.0;;;;;;;0.6;100.0;100990;;;;
2023/01/20 04:35:00;;;;;;;3.1;3.0;;;;;;;0.6;100.0;100980;;;;
2023/01/20 04:36:00;;;;;;;3.1;3.0;;;;;;;0.6;100.0;100980;;;;
2023/01/20 04:37:00;;;;;;;3.1;3.0;;;;;;;0.5;100.0;100990;;;;
2023/01/20 04:38:00;;;;;;;3.1;3.0;;;;;;;0.5;100.0;100990;;;;
2023/01/20 04:39:00;;;;;;;3.1;3.0;;;;;;;0.5;100.0;100990;;;;
2023/01/20 04:40:00;;;;;;;3.1;3.0;;;;;;;0.5;100.0;100990;;;;
2023/01/20 04:41:03;;;;;;;3.1;3.0;;;;;;;0.5;100.0;100990;;;;
2023/01/20 04:42:00;;;;;;;3.1;3.0;;;;;;;0.5;100.0;100990;;;;
2023/01/20 04:43:00;;;;;;;3.1;3.0;;;;;;;0.6;100.0;100990;;;;
2023/01/20 04:44:00;;;;;;;3.1;3.0;;;;;;;0.6;100.0;100990;;;;
2023/01/20 04:45:00;;;;;;;3.1;3.0;;;;;;;0.5;100.0;101000;;;;
2023/01/20 04:46:00;;;;;;;3.1;3.0;;;;;;;0.5;100.0;101000;;;;
2023/01/20 04:47:00;;;;;;;3.1;3.0;;;;;;;0.5;100.0;100990;;;;
2023/01/20 04:48:04;;;;;;;3.1;3.0;;;;;;;0.5;100.0;100990;;;;
2023/01/20 04:49:00;;;;;;;3.1;3.0;;;;;;;0.5;100.0;101000;;;;
2023/01/20 04:50:00;;;;;;;3.1;3.0;;;;;;;0.5;100.0;101000;;;;
2023/01/20 04:51:02;;;;;;;3.1;3.0;;;;;;;0.5;100.0;101000;;;;
2023/01/20 04:52:00;;;;;;;3.1;3.0;;;;;;;0.5;100.0;101000;;;;
2023/01/20 04:53:01;;;;;;;3.1;3.0;;;;;;;0.6;100.0;101000;;;;
2023/01/20 04:54:00;;;;;;;3.5;3.4;;;;;;;0.6;100.0;101000;;;;
2023/01/20 04:55:00;;;;;;;3.5;3.4;;;;;;;0.5;100.0;101000;;;;
2023/01/20 04:56:00;;;;;;;3.5;3.4;;;;;;;0.5;100.0;101000;;;;
2023/01/20 04:57:00;;;;;;;3.5;3.4;;;;;;;0.5;100.0;101000;;;;
2023/01/20 04:58:00;;;;;;;3.5;3.4;;;;;;;0.5;100.0;101000;;;;
2023/01/20 04:59:00;;;;;;;3.5;3.4;;;;;;;0.5;100.0;101000;;;;
2023/01/20 05:00:00;;;;;;;3.5;3.4;;;;;;;0.5;100.0;101000;;;;
2023/01/20 05:01:01;;;;;;;3.5;3.4;;;;;;;0.5;100.0;101000;;;;
2023/01/20 05:02:00;;;;;;;3.5;3.4;;;;;;;0.5;100.0;101000;;;;
2023/01/20 05:03:01;;;;;;;3.5;3.4;;;;;;;0.5;100.0;101010;;;;
2023/01/20 05:04:00;;;;;;;3.5;3.4;;;;;;;0.5;100.0;101010;;;;
2023/01/20 05:05:00;;;;;;;3.5;3.4;;;;;;;0.6;100.0;101000;;;;
2023/01/20 05:06:00;;;;;;;3.5;3.4;;;;;;;0.6;100.0;101000;;;;
2023/01/20 05:07:00;;;;;;;3.5;3.4;;;;;;;0.6;100.0;101000;;;;
2023/01/20 05:08:01;;;;;;;3.5;3.4;;;;;;;0.6;100.0;101000;;;;
2023/01/20 05:09:00;;;;;;;3.5;3.4;;;;;;;0.5;100.0;101010;;;;
2023/01/20 05:10:00;;;;;;;3.5;3.4;;;;;;;0.5;100.0;101010;;;;
2023/01/20 05:11:00;;;;;;;3.5;3.4;;;;;;;0.6;100.0;101010;;;;
2023/01/20 05:12:00;;;;;;;3.5;3.4;;;;;;;0.6;100.0;101010;;;;
2023/01/20 05:13:00;;;;;;;3.5;3.4;;;;;;;0.5;100.0;101010;;;;
2023/01/20 05:14:00;;;;;;;2.8;2.7;;;;;;;0.5;100.0;101010;;;;
2023/01/20 05:15:00;;;;;;;2.8;2.7;;;;;;;0.6;100.0;101010;;;;
2023/01/20 05:16:03;;;;;;;2.8;2.7;;;;;;;0.6;100.0;101010;;;;
2023/01/20 05:17:00;;;;;;;2.8;2.7;;;;;;;0.5;100.0;101020;;;;
2023/01/20 05:18:00;;;;;;;2.8;2.7;;;;;;;0.5;100.0;101020;;;;
2023/01/20 05:19:00;;;;;;;2.8;2.7;;;;;;;0.5;100.0;101020;;;;
2023/01/20 05:20:00;;;;;;;2.8;2.7;;;;;;;0.5;100.0;101020;;;;
2023/01/20 05:21:00;;;;;;;2.8;2.7;;;;;;;0.5;100.0;101020;;;;
2023/01/20 05:22:00;;;;;;;2.8;2.7;;;;;;;0.5;100.0;101020;;;;
2023/01/20 05:23:01;;;;;;;2.8;2.7;;;;;;;0.5;100.0;101030;;;;
2023/01/20 05:24:00;;;;;;;2.8;2.7;;;;;;;0.5;100.0;101030;;;;
2023/01/20 05:25:00;;;;;;;2.8;2.7;;;;;;;0.5;100.0;101020;;;;
2023/01/20 05:26:00;;;;;;;2.8;2.7;;;;;;;0.5;100.0;101020;;;;
2023/01/20 05:27:00;;;;;;;2.8;2.7;;;;;;;0.5;100.0;101020;;;;
2023/01/20 05:28:00;;;;;;;2.8;2.7;;;;;;;0.5;100.0;101020;;;;
2023/01/20 05:29:01;;;;;;;2.8;2.7;;;;;;;0.5;100.0;101020;;;;
2023/01/20 05:30:00;;;;;;;2.8;2.7;;;;;;;0.5;100.0;101020;;;;
2023/01/20 05:31:00;;;;;;;2.8;2.7;;;;;;;0.5;100.0;101020;;;;
2023/01/20 05:32:00;;;;;;;2.8;2.7;;;;;;;0.5;100.0;101020;;;;
2023/01/20 05:33:00;;;;;;;2.8;2.7;;;;;;;0.5;100.0;101020;;;;
2023/01/20 05:34:00;;;;;;;3.5;3.4;;;;;;;0.5;100.0;101020;;;;
2023/01/20 05:35:00;;;;;;;3.5;3.4;;;;;;;0.4;100.0;101020;;;;
2023/01/20 05:36:03;;;;;;;3.5;3.4;;;;;;;0.4;100.0;101020;;;;
2023/01/20 05:37:00;;;;;;;3.5;3.4;;;;;;;0.4;100.0;101020;;;;
2023/01/20 05:38:00;;;;;;;3.5;3.4;;;;;;;0.4;100.0;101020;;;;
2023/01/20 05:39:00;;;;;;;3.5;3.4;;;;;;;0.5;100.0;101020;;;;
2023/01/20 05:40:00;;;;;;;3.5;3.4;;;;;;;0.5;100.0;101020;;;;
2023/01/20 05:41:01;;;;;;;3.5;3.4;;;;;;;0.5;100.0;101020;;;;
2023/01/20 05:42:01;;;;;;;3.5;3.4;;;;;;;0.5;100.0;101020;;;;
2023/01/20 05:43:01;;;;;;;3.5;3.4;;;;;;;0.5;100.0;101020;;;;
2023/01/20 05:44:00;;;;;;;3.5;3.4;;;;;;;0.5;100.0;101020;;;;
2023/01/20 05:45:00;;;;;;;3.5;3.4;;;;;;;0.4;100.0;101030;;;;
2023/01/20 05:46:00;;;;;;;3.5;3.4;;;;;;;0.4;100.0;101030;;;;
2023/01/20 05:47:01;;;;;;;3.5;3.4;;;;;;;0.3;100.0;101030;;;;
2023/01/20 05:48:00;;;;;;;3.5;3.4;;;;;;;0.3;100.0;101030;;;;
2023/01/20 05:49:01;;;;;;;3.5;3.4;;;;;;;0.3;100.0;101020;;;;
2023/01/20 05:50:00;;;;;;;3.5;3.4;;;;;;;0.3;100.0;101020;;;;
2023/01/20 05:51:00;;;;;;;3.5;3.4;;;;;;;0.4;100.0;101020;;;;
2023/01/20 05:52:00;;;;;;;3.5;3.4;;;;;;;0.4;100.0;101020;;;;
2023/01/20 05:53:00;;;;;;;3.5;3.4;;;;;;;0.4;100.0;101030;;;;
2023/01/20 05:54:00;;;;;;;3.4;3.3;;;;;;;0.4;100.0;101030;;;;
2023/01/20 05:55:00;;;;;;;3.4;3.3;;;;;;;0.4;100.0;101020;;;;
2023/01/20 05:56:01;;;;;;;3.4;3.3;;;;;;;0.4;100.0;101020;;;;
2023/01/20 05:57:02;;;;;;;3.4;3.3;;;;;;;0.3;100.0;101030;;;;
2023/01/20 05:58:01;;;;;;;3.4;3.3;;;;;;;0.3;100.0;101030;;;;
2023/01/20 05:59:00;;;;;;;3.4;3.3;;;;;;;0.4;100.0;101030;;;;
2023/01/20 06:00:00;;;;;;;3.4;3.3;;;;;;;0.4;100.0;101030;;;;
2023/01/20 06:01:09;;;;;;;3.4;3.3;;;;;;;0.5;100.0;101030;;;;
2023/01/20 06:02:00;;;;;;;3.4;3.3;;;;;;;0.5;100.0;101030;;;;
2023/01/20 06:03:00;;;;;;;3.4;3.3;;;;;;;0.3;100.0;101030;;;;
2023/01/20 06:04:00;;;;;;;3.4;3.3;;;;;;;0.3;100.0;101030;;;;
2023/01/20 06:05:00;;;;;;;3.4;3.3;;;;;;;0.5;100.0;101030;;;;
2023/01/20 06:06:01;;;;;;;3.4;3.3;;;;;;;0.5;100.0;101030;;;;
2023/01/20 06:07:00;;;;;;;3.4;3.3;;;;;;;0.3;100.0;101030;;;;
2023/01/20 06:08:00;;;;;;;3.4;3.3;;;;;;;0.3;100.0;101030;;;;
2023/01/20 06:09:00;;;;;;;3.4;3.3;;;;;;;0.3;100.0;101040;;;;
2023/01/20 06:10:01;;;;;;;3.4;3.3;;;;;;;0.3;100.0;101040;;;;
2023/01/20 06:11:00;;;;;;;3.4;3.3;;;;;;;0.3;100.0;101040;;;;
2023/01/20 06:12:00;;;;;;;3.4;3.3;;;;;;;0.3;100.0;101040;;;;
2023/01/20 06:13:00;;;;;;;3.4;3.3;;;;;;;0.3;100.0;101050;;;;
2023/01/20 06:14:00;;;;;;;3.0;2.9;;;;;;;0.3;100.0;101050;;;;
2023/01/20 06:15:00;;;;;;;3.0;2.9;;;;;;;0.3;100.0;101050;;;;
2023/01/20 06:16:00;;;;;;;3.0;2.9;;;;;;;0.3;100.0;101050;;;;
2023/01/20 06:17:00;;;;;;;3.0;2.9;;;;;;;0.3;100.0;101050;;;;
2023/01/20 06:18:00;;;;;;;3.0;2.9;;;;;;;0.3;100.0;101050;;;;
2023/01/20 06:19:00;;;;;;;3.0;2.9;;;;;;;0.3;100.0;101050;;;;
2023/01/20 06:20:00;;;;;;;3.0;2.9;;;;;;;0.3;100.0;101050;;;;
2023/01/20 06:21:00;;;;;;;3.0;2.9;;;;;;;0.3;100.0;101050;;;;
2023/01/20 06:22:00;;;;;;;3.0;2.9;;;;;;;0.3;100.0;101050;;;;
2023/01/20 06:23:00;;;;;;;3.0;2.9;;;;;;;0.4;100.0;101050;;;;
2023/01/20 06:24:00;;;;;;;3.0;2.9;;;;;;;0.4;100.0;101050;;;;
2023/01/20 06:25:00;;;;;;;3.0;2.9;;;;;;;0.5;100.0;101060;;;;
2023/01/20 06:26:03;;;;;;;3.0;2.9;;;;;;;0.5;100.0;101060;;;;
2023/01/20 06:27:00;;;;;;;3.0;2.9;;;;;;;0.5;100.0;101060;;;;
2023/01/20 06:28:00;;;;;;;3.0;2.9;;;;;;;0.5;100.0;101060;;;;
2023/01/20 06:29:00;;;;;;;3.0;2.9;;;;;;;0.4;100.0;101060;;;;